Time;durP1;ratioP1;P1;durP2;ratioP2;P2;SDS_P1;SDS_P2;PMS_P1;PMS_P2;Temp;Humidity;BMP_temperature;BMP_pressure;BME280_temperature;BME280_humidity;BME280_pressure;Samples;Min_cycle;Max_cycle;Signal;HPM_P1;HPM_P2
2022/04/07 00:02:16;;;;;;;5.70;3.97;;;8.80;99.90;;;;;;5032117;28;20781;-60
2022/04/07 00:04:43;;;;;;;5.22;4.00;;;8.80;99.90;;;;;;5032057;28;20422;-60
2022/04/07 00:07:10;;;;;;;5.70;4.18;;;8.80;99.90;;;;;;5032027;28;20473;-60
2022/04/07 00:09:36;;;;;;;5.05;3.80;;;8.70;99.90;;;;;;5032049;28;20407;-60
2022/04/07 00:12:06;;;;;;;5.18;3.38;;;8.70;99.90;;;;;;5032020;28;20415;-60
2022/04/07 00:14:32;;;;;;;4.72;2.70;;;8.70;99.90;;;;;;5031906;28;20465;-60
2022/04/07 00:16:59;;;;;;;3.30;2.40;;;8.70;99.90;;;;;;5031496;28;20426;-60
2022/04/07 00:19:26;;;;;;;4.28;2.50;;;8.60;99.90;;;;;;5032207;28;20425;-59
2022/04/07 00:21:52;;;;;;;3.65;2.40;;;8.70;99.90;;;;;;5032140;28;20415;-60
2022/04/07 00:24:21;;;;;;;3.03;2.30;;;8.60;99.90;;;;;;5031936;28;20415;-60
2022/04/07 00:26:47;;;;;;;5.03;2.28;;;8.60;99.90;;;;;;5031260;28;20506;-60
2022/04/07 00:29:17;;;;;;;3.15;1.63;;;8.60;99.90;;;;;;5031815;28;20473;-60
2022/04/07 00:31:44;;;;;;;5.00;1.77;;;8.60;98.50;;;;;;5031382;28;20423;-60
2022/04/07 00:34:11;;;;;;;3.80;1.80;;;8.60;94.00;;;;;;5031762;28;20427;-60
2022/04/07 00:36:38;;;;;;;2.87;1.53;;;8.60;93.10;;;;;;5031175;28;20532;-60
2022/04/07 00:39:05;;;;;;;3.33;1.60;;;8.60;94.90;;;;;;5031789;28;20845;-60
2022/04/07 00:41:32;;;;;;;2.72;1.77;;;8.50;93.00;;;;;;5031353;28;20525;-60
2022/04/07 00:43:59;;;;;;;4.50;1.80;;;8.70;89.50;;;;;;5031389;28;20411;-59
2022/04/07 00:46:27;;;;;;;3.87;1.60;;;8.60;75.60;;;;;;5030897;28;20419;-60
2022/04/07 00:48:53;;;;;;;1.92;1.42;;;8.60;69.90;;;;;;5031373;28;20430;-60
2022/04/07 00:51:21;;;;;;;2.22;1.60;;;8.70;67.00;;;;;;5031301;28;20418;-60
2022/04/07 00:53:47;;;;;;;3.35;1.70;;;8.60;62.30;;;;;;5031466;28;20836;-60
2022/04/07 00:56:14;;;;;;;3.25;1.67;;;8.60;51.20;;;;;;5031091;28;20413;-60
2022/04/07 00:58:41;;;;;;;3.17;1.75;;;8.70;29.40;;;;;;5031185;28;20402;-59
2022/04/07 01:01:08;;;;;;;2.75;1.80;;;8.70;12.10;;;;;;5031768;28;20415;-60
2022/04/07 01:03:37;;;;;;;4.30;1.90;;;8.80;1.00;;;;;;5031439;28;20415;-60
2022/04/07 01:06:03;;;;;;;2.73;1.80;;;8.80;1.00;;;;;;5030756;28;20473;-59
2022/04/07 01:08:30;;;;;;;3.50;2.00;;;8.70;1.00;;;;;;5031151;28;20841;-60
2022/04/07 01:10:57;;;;;;;3.03;2.03;;;8.70;1.00;;;;;;5030789;28;20415;-60
2022/04/07 01:13:24;;;;;;;4.13;2.20;;;8.70;1.00;;;;;;5030702;28;20913;-60
2022/04/07 01:15:50;;;;;;;3.38;1.88;;;8.60;1.00;;;;;;5030844;28;20410;-60
2022/04/07 01:18:18;;;;;;;3.17;1.85;;;8.60;1.00;;;;;;5030658;28;20415;-60
2022/04/07 01:20:47;;;;;;;4.00;2.00;;;8.70;1.00;;;;;;5030760;28;20894;-60
2022/04/07 01:23:14;;;;;;;4.80;1.90;;;8.70;1.00;;;;;;5030615;28;20437;-60
2022/04/07 01:25:43;;;;;;;3.50;1.90;;;8.80;1.00;;;;;;5030616;28;20477;-60
2022/04/07 01:28:10;;;;;;;4.13;1.90;;;8.80;1.00;;;;;;5030225;28;20953;-60
2022/04/07 01:30:36;;;;;;;3.05;1.75;;;8.80;1.00;;;;;;5031395;28;20419;-60
2022/04/07 01:33:03;;;;;;;4.07;1.80;;;8.90;1.00;;;;;;5031268;28;20427;-59
2022/04/07 01:35:32;;;;;;;3.08;1.55;;;8.80;1.00;;;;;;5031171;28;20415;-60
2022/04/07 01:38:00;;;;;;;3.55;1.70;;;8.90;1.00;;;;;;5030077;28;20419;-59
2022/04/07 01:40:32;;;;;;;3.58;1.60;;;8.90;1.00;;;;;;5030393;28;20419;-59
2022/04/07 01:43:04;;;;;;;3.10;1.60;;;8.90;99.90;;;;;;5030794;28;20446;-60
2022/04/07 01:45:33;;;;;;;3.88;1.30;;;9.00;99.90;;;;;;5029881;28;20419;-60
2022/04/07 01:48:00;;;;;;;6.00;1.65;;;9.00;99.90;;;;;;5030095;28;20419;-60
2022/04/07 01:50:27;;;;;;;4.03;1.40;;;8.90;99.90;;;;;;5030364;28;20476;-60
2022/04/07 01:52:54;;;;;;;4.60;1.37;;;9.00;99.90;;;;;;5030393;28;20504;-60
2022/04/07 01:55:21;;;;;;;3.08;1.40;;;9.00;99.90;;;;;;5030546;28;20829;-61
2022/04/07 01:57:50;;;;;;;3.47;1.30;;;9.00;99.90;;;;;;5030421;28;20473;-60
2022/04/07 02:00:18;;;;;;;3.05;1.27;;;9.10;1.00;;;;;;5030993;28;20480;-60
2022/04/07 02:02:45;;;;;;;2.25;1.20;;;9.10;1.00;;;;;;5030844;28;20427;-60
2022/04/07 02:05:13;;;;;;;3.80;1.42;;;9.10;1.00;;;;;;5031552;28;20450;-61
2022/04/07 02:07:41;;;;;;;2.72;1.40;;;9.10;1.00;;;;;;5030412;28;20418;-59
2022/04/07 02:10:09;;;;;;;3.55;1.20;;;9.10;1.00;;;;;;5030375;28;20882;-60
2022/04/07 02:12:37;;;;;;;2.97;1.50;;;9.10;1.00;;;;;;5030305;28;20419;-60
2022/04/07 02:15:04;;;;;;;2.47;1.30;;;9.10;1.00;;;;;;5030351;28;20419;-60
2022/04/07 02:17:33;;;;;;;2.78;1.40;;;9.00;1.00;;;;;;5029791;28;20766;-60
2022/04/07 02:20:01;;;;;;;3.47;1.33;;;9.00;99.90;;;;;;5033897;28;20919;-58
2022/04/07 02:22:28;;;;;;;4.50;1.50;;;9.10;99.90;;;;;;5034320;28;20478;-59
2022/04/07 02:24:55;;;;;;;3.10;1.50;;;9.00;99.90;;;;;;5033919;28;20419;-59
2022/04/07 02:27:22;;;;;;;3.90;1.65;;;9.00;99.90;;;;;;5033774;28;20415;-59
2022/04/07 02:29:49;;;;;;;3.38;1.67;;;9.00;1.00;;;;;;5033970;28;20783;-59
2022/04/07 02:32:16;;;;;;;2.28;1.63;;;8.90;1.00;;;;;;5033968;28;20419;-59
2022/04/07 02:34:44;;;;;;;4.13;1.77;;;9.00;1.00;;;;;;5033861;28;20430;-59
2022/04/07 02:37:11;;;;;;;4.03;1.80;;;9.00;1.00;;;;;;5033519;28;20472;-59
2022/04/07 02:39:37;;;;;;;2.88;1.65;;;9.00;1.00;;;;;;5033850;28;20469;-58
2022/04/07 02:42:05;;;;;;;3.90;1.70;;;9.00;1.00;;;;;;5033689;28;20496;-60
2022/04/07 02:44:31;;;;;;;4.43;1.93;;;9.00;1.00;;;;;;5033785;28;20550;-60
2022/04/07 02:46:58;;;;;;;3.15;1.73;;;9.00;1.00;;;;;;5032994;28;20423;-60
2022/04/07 02:49:25;;;;;;;4.05;1.70;;;9.00;1.00;;;;;;5033711;28;20419;-60
2022/04/07 02:51:53;;;;;;;3.05;1.80;;;9.00;1.00;;;;;;5033779;28;21038;-60
2022/04/07 02:54:19;;;;;;;2.95;1.60;;;9.00;1.00;;;;;;5033334;28;20917;-60
2022/04/07 02:56:47;;;;;;;3.65;1.80;;;9.00;1.00;;;;;;5033065;28;20423;-60
2022/04/07 02:59:14;;;;;;;3.13;1.90;;;9.00;1.00;;;;;;5033227;28;20886;-60
2022/04/07 03:01:40;;;;;;;3.67;2.00;;;9.00;1.00;;;;;;5033229;28;20481;-60
2022/04/07 03:04:07;;;;;;;4.55;2.20;;;8.90;1.00;;;;;;5033250;28;20469;-60
2022/04/07 03:06:34;;;;;;;3.70;2.03;;;8.90;1.00;;;;;;5033144;28;20555;-60
2022/04/07 03:09:02;;;;;;;3.30;1.75;;;8.80;3.30;;;;;;5033300;28;20767;-60
2022/04/07 03:11:28;;;;;;;3.27;1.97;;;8.80;23.10;;;;;;5033127;28;20418;-60
2022/04/07 03:13:55;;;;;;;3.25;1.95;;;8.80;31.80;;;;;;5033067;28;20910;-60
2022/04/07 03:16:22;;;;;;;5.72;2.08;;;8.70;29.70;;;;;;5032727;28;20415;-60
2022/04/07 03:18:49;;;;;;;4.63;2.03;;;8.70;46.50;;;;;;5032948;28;20840;-59
2022/04/07 03:21:16;;;;;;;3.70;1.67;;;8.70;48.70;;;;;;5032989;28;20415;-60
2022/04/07 03:23:42;;;;;;;4.97;1.87;;;8.80;17.10;;;;;;5033115;28;20463;-60
2022/04/07 03:26:10;;;;;;;4.47;1.90;;;8.70;13.10;;;;;;5032465;28;20415;-60
2022/04/07 03:28:37;;;;;;;4.20;1.80;;;8.80;4.90;;;;;;5032441;28;20920;-60
2022/04/07 03:31:04;;;;;;;3.00;1.60;;;8.80;1.00;;;;;;5032789;28;20423;-60
2022/04/07 03:33:30;;;;;;;4.75;1.50;;;8.80;1.00;;;;;;5032671;28;20509;-60
2022/04/07 03:35:58;;;;;;;3.15;1.55;;;8.80;1.00;;;;;;5032532;28;20419;-60
2022/04/07 03:38:24;;;;;;;3.90;1.40;;;8.80;1.00;;;;;;5032292;28;20418;-60
2022/04/07 03:40:51;;;;;;;3.45;1.75;;;8.90;1.00;;;;;;5032847;28;20415;-60
2022/04/07 03:43:19;;;;;;;5.40;1.55;;;8.90;1.00;;;;;;5032376;28;20829;-60
2022/04/07 03:45:46;;;;;;;2.75;1.35;;;8.90;1.00;;;;;;5032663;28;20423;-60
2022/04/07 03:48:12;;;;;;;2.28;1.40;;;9.00;1.00;;;;;;5032408;28;20469;-60
2022/04/07 03:50:39;;;;;;;3.70;1.30;;;9.00;99.90;;;;;;5032466;28;20422;-59
2022/04/07 03:53:06;;;;;;;5.05;2.08;;;9.10;99.90;;;;;;5032485;28;20473;-60
2022/04/07 03:55:33;;;;;;;4.05;1.50;;;9.10;99.90;;;;;;5032374;28;20429;-60
2022/04/07 03:57:59;;;;;;;3.08;1.20;;;9.10;99.90;;;;;;5031824;28;20419;-60
2022/04/07 04:00:28;;;;;;;3.60;1.30;;;9.20;99.20;;;;;;5032360;28;20467;-60
2022/04/07 04:02:55;;;;;;;3.50;1.35;;;9.20;1.00;;;;;;5032354;28;20427;-60
2022/04/07 04:05:21;;;;;;;4.30;1.30;;;9.20;99.90;;;;;;5032183;28;20415;-60
2022/04/07 04:07:48;;;;;;;3.65;1.10;;;9.20;58.20;;;;;;5031643;28;20427;-60
2022/04/07 04:10:15;;;;;;;2.45;0.90;;;9.20;1.00;;;;;;5031976;28;20508;-60
2022/04/07 04:12:41;;;;;;;4.13;1.30;;;9.20;99.90;;;;;;5032068;28;20484;-60
2022/04/07 04:15:09;;;;;;;2.75;1.20;;;9.20;99.90;;;;;;5031944;28;20913;-60
2022/04/07 04:17:37;;;;;;;3.88;1.02;;;9.20;99.90;;;;;;5031428;28;20414;-60
2022/04/07 04:20:05;;;;;;;4.97;1.30;;;9.20;94.30;;;;;;5032141;28;20445;-61
2022/04/07 04:22:31;;;;;;;2.53;1.00;;;9.30;1.00;;;;;;5032084;28;20837;-59
2022/04/07 04:24:58;;;;;;;3.80;1.17;;;9.40;99.90;;;;;;5031724;28;20473;-59
2022/04/07 04:27:25;;;;;;;4.07;1.00;;;9.40;16.90;;;;;;5031531;28;20419;-60
2022/04/07 04:29:51;;;;;;;4.47;1.40;;;9.40;1.00;;;;;;5031769;28;20415;-59
2022/04/07 04:32:18;;;;;;;3.92;1.00;;;9.40;1.00;;;;;;5031812;28;20419;-59
2022/04/07 04:34:46;;;;;;;4.20;1.08;;;9.40;1.00;;;;;;5031253;28;20497;-60
2022/04/07 04:37:12;;;;;;;4.10;1.20;;;9.40;99.90;;;;;;5030921;28;20492;-60
2022/04/07 04:39:39;;;;;;;2.92;1.50;;;9.40;99.90;;;;;;5031194;28;20419;-60
2022/04/07 04:42:06;;;;;;;4.77;1.37;;;9.50;99.60;;;;;;5031272;28;20427;-60
2022/04/07 04:44:33;;;;;;;4.15;1.30;;;9.50;99.90;;;;;;5031487;28;20419;-60
2022/04/07 04:47:00;;;;;;;3.28;1.20;;;9.50;6.00;;;;;;5031083;28;20488;-59
2022/04/07 04:49:27;;;;;;;2.22;1.40;;;9.50;99.90;;;;;;5031527;28;20893;-59
2022/04/07 04:51:54;;;;;;;4.72;1.75;;;9.50;99.90;;;;;;5031161;28;20476;-59
2022/04/07 04:54:21;;;;;;;3.72;1.85;;;9.40;99.90;;;;;;5031068;28;21067;-60
2022/04/07 04:56:48;;;;;;;5.07;2.22;;;9.20;1.00;;;;;;5030731;28;20469;-60
2022/04/07 04:59:16;;;;;;;5.40;2.40;;;9.10;1.00;;;;;;5031371;28;20485;-59
2022/04/07 05:01:42;;;;;;;4.35;2.53;;;9.10;1.40;;;;;;5031472;28;20419;-59
2022/04/07 05:04:09;;;;;;;5.00;2.83;;;8.90;30.70;;;;;;5031107;28;20464;-59
2022/04/07 05:06:36;;;;;;;5.38;2.92;;;8.90;74.90;;;;;;5030706;28;20774;-59
2022/04/07 05:09:04;;;;;;;4.43;2.80;;;8.80;90.80;;;;;;5031120;28;20419;-59
2022/04/07 05:11:30;;;;;;;4.07;2.90;;;8.80;99.90;;;;;;5031408;28;20568;-59
2022/04/07 05:13:57;;;;;;;5.30;3.30;;;8.70;99.90;;;;;;5030818;28;20464;-57
2022/04/07 05:16:24;;;;;;;6.18;3.20;;;8.60;99.90;;;;;;5030541;28;20505;-60
2022/04/07 05:18:50;;;;;;;6.25;3.50;;;8.70;99.90;;;;;;5030947;28;20419;-60
2022/04/07 05:21:17;;;;;;;5.35;2.92;;;8.70;99.90;;;;;;5030612;28;20452;-59
2022/04/07 05:23:44;;;;;;;4.68;3.15;;;8.70;99.90;;;;;;5030789;28;20897;-60
2022/04/07 05:26:13;;;;;;;5.77;3.20;;;8.70;99.90;;;;;;5030435;28;20419;-60
2022/04/07 05:28:40;;;;;;;5.68;2.88;;;8.70;99.90;;;;;;5031453;28;20419;-60
2022/04/07 05:31:06;;;;;;;4.75;2.78;;;8.70;99.90;;;;;;5031408;28;20465;-60
2022/04/07 05:33:33;;;;;;;3.10;2.70;;;8.70;99.90;;;;;;5031370;28;20415;-60
2022/04/07 05:36:00;;;;;;;3.10;2.33;;;8.70;99.90;;;;;;5030085;28;21278;-59
2022/04/07 05:38:26;;;;;;;4.03;2.20;;;8.80;99.90;;;;;;5030649;28;20419;-59
2022/04/07 05:40:53;;;;;;;2.93;2.10;;;8.80;99.90;;;;;;5030749;28;20449;-60
2022/04/07 05:43:22;;;;;;;4.20;2.20;;;8.70;99.90;;;;;;5030568;28;20415;-59
2022/04/07 05:45:50;;;;;;;3.88;2.15;;;8.60;99.90;;;;;;5030403;28;20936;-58
2022/04/07 05:48:17;;;;;;;5.25;2.42;;;8.70;99.90;;;;;;5029964;28;20502;-60
2022/04/07 05:50:44;;;;;;;2.93;2.40;;;8.60;99.90;;;;;;5030445;28;20639;-57
2022/04/07 05:53:11;;;;;;;3.38;2.33;;;8.60;99.90;;;;;;5031588;28;20488;-59
2022/04/07 05:55:37;;;;;;;3.90;2.78;;;8.70;99.90;;;;;;5034505;28;20924;-59
2022/04/07 05:58:05;;;;;;;3.63;2.83;;;8.80;99.90;;;;;;5034327;28;20471;-59
2022/04/07 06:00:34;;;;;;;2.60;2.10;;;8.90;99.90;;;;;;5034471;28;20423;-59
2022/04/07 06:03:00;;;;;;;2.87;1.83;;;8.90;99.90;;;;;;5034331;28;20418;-59
2022/04/07 06:05:27;;;;;;;2.65;2.10;;;8.90;99.90;;;;;;5034461;28;20828;-60
2022/04/07 06:07:58;;;;;;;3.10;1.98;;;8.90;99.90;;;;;;5034221;28;20434;-60
2022/04/07 06:10:25;;;;;;;3.30;1.70;;;9.00;64.00;;;;;;5034232;28;20418;-60
2022/04/07 06:12:52;;;;;;;2.90;1.80;;;9.10;49.80;;;;;;5034513;28;20415;-60
2022/04/07 06:15:18;;;;;;;2.70;1.73;;;9.00;51.30;;;;;;5034057;28;20437;-60
2022/04/07 06:17:47;;;;;;;2.20;1.55;;;9.00;70.50;;;;;;5033650;28;20480;-61
2022/04/07 06:20:15;;;;;;;4.95;1.60;;;9.00;87.00;;;;;;5034105;28;20917;-60
2022/04/07 06:22:43;;;;;;;4.32;2.10;;;9.00;99.90;;;;;;5034247;28;20419;-61
2022/04/07 06:25:10;;;;;;;3.42;1.85;;;9.00;95.70;;;;;;5034104;28;20474;-61
2022/04/07 06:27:37;;;;;;;2.97;1.70;;;9.00;99.90;;;;;;5033738;28;20464;-60
2022/04/07 06:30:05;;;;;;;2.53;1.80;;;8.90;99.90;;;;;;5033785;28;20465;-58
2022/04/07 06:32:32;;;;;;;2.28;1.60;;;8.90;99.90;;;;;;5034073;28;20423;-60
2022/04/07 06:35:00;;;;;;;1.88;1.65;;;8.90;99.90;;;;;;5033704;28;20431;-58
2022/04/07 06:37:28;;;;;;;3.65;2.20;;;9.00;58.50;;;;;;5033580;28;20411;-61
2022/04/07 06:40:01;;;;;;;3.75;2.03;;;9.00;68.90;;;;;;5033615;28;20423;-59
2022/04/07 06:42:27;;;;;;;3.22;2.08;;;8.90;93.50;;;;;;5033615;28;20418;-60
2022/04/07 06:44:55;;;;;;;3.08;2.13;;;8.90;95.20;;;;;;5033763;28;20423;-61
2022/04/07 06:47:22;;;;;;;3.67;2.08;;;8.90;72.80;;;;;;5033324;28;20517;-61
2022/04/07 06:49:49;;;;;;;2.15;1.90;;;8.90;51.10;;;;;;5033757;28;20423;-59
2022/04/07 06:52:18;;;;;;;1.80;1.50;;;8.90;53.50;;;;;;5033311;28;20897;-60
2022/04/07 06:54:45;;;;;;;2.53;1.60;;;8.90;54.80;;;;;;5033547;28;20423;-59
2022/04/07 06:57:11;;;;;;;1.85;1.23;;;8.90;50.60;;;;;;5032811;28;20850;-60
2022/04/07 06:59:38;;;;;;;1.70;1.25;;;8.90;59.30;;;;;;5033678;28;20415;-60
2022/04/07 07:02:05;;;;;;;2.22;1.30;;;8.90;72.00;;;;;;5033328;28;20423;-60
2022/04/07 07:04:33;;;;;;;2.60;1.43;;;9.00;70.10;;;;;;5033180;28;20407;-60
2022/04/07 07:07:00;;;;;;;3.05;1.33;;;9.00;92.80;;;;;;5033109;28;20415;-63
2022/04/07 07:09:28;;;;;;;2.67;1.40;;;9.00;98.80;;;;;;5033185;28;20407;-60
2022/04/07 07:11:54;;;;;;;2.45;1.42;;;9.00;99.90;;;;;;5033751;28;20828;-60
2022/04/07 07:14:21;;;;;;;2.85;1.40;;;9.00;99.90;;;;;;5033334;28;20480;-58
2022/04/07 07:16:48;;;;;;;3.40;1.40;;;9.00;99.90;;;;;;5032699;28;20512;-58
2022/04/07 07:19:17;;;;;;;2.78;1.73;;;9.00;99.90;;;;;;5033015;28;20450;-57
2022/04/07 07:21:44;;;;;;;3.17;1.50;;;9.00;99.90;;;;;;5033121;28;20426;-58
2022/04/07 07:24:11;;;;;;;2.95;1.42;;;9.00;98.80;;;;;;5032615;28;20411;-58
2022/04/07 07:26:39;;;;;;;1.85;1.02;;;9.00;95.10;;;;;;5032775;28;20411;-58
2022/04/07 07:29:06;;;;;;;1.85;1.00;;;9.00;59.60;;;;;;5033296;28;20419;-57
2022/04/07 07:31:33;;;;;;;3.17;1.20;;;9.00;53.10;;;;;;5033246;28;20786;-58
2022/04/07 07:34:00;;;;;;;2.38;1.17;;;8.90;93.60;;;;;;5033314;28;20505;-58
2022/04/07 07:36:27;;;;;;;1.30;0.90;;;8.90;98.90;;;;;;5032731;28;20488;-58
2022/04/07 07:38:54;;;;;;;2.00;1.10;;;8.90;99.90;;;;;;5032856;28;20894;-58
2022/04/07 07:41:20;;;;;;;1.65;1.08;;;8.90;99.90;;;;;;5032700;28;20414;-59
2022/04/07 07:43:49;;;;;;;2.95;1.25;;;8.80;99.90;;;;;;5032811;28;20464;-57
2022/04/07 07:46:16;;;;;;;3.40;1.10;;;8.80;99.90;;;;;;5032181;28;20415;-58
2022/04/07 07:48:43;;;;;;;3.28;1.10;;;8.90;99.90;;;;;;5032722;28;20419;-58
2022/04/07 07:51:10;;;;;;;2.13;1.20;;;8.80;99.90;;;;;;5032478;28;20423;-59
2022/04/07 07:53:37;;;;;;;2.63;1.30;;;8.80;99.90;;;;;;5032422;28;20442;-57
2022/04/07 07:56:04;;;;;;;2.20;1.40;;;8.70;99.90;;;;;;5032155;28;20497;-58
2022/04/07 07:58:31;;;;;;;2.15;1.50;;;8.70;99.90;;;;;;5032715;28;20480;-59
2022/04/07 08:00:59;;;;;;;3.15;1.77;;;8.70;99.90;;;;;;5032460;28;20426;-59
2022/04/07 08:03:26;;;;;;;3.08;1.30;;;8.80;99.90;;;;;;5032313;28;20472;-59
2022/04/07 08:05:52;;;;;;;2.90;1.35;;;8.70;99.90;;;;;;5031901;28;20414;-59
2022/04/07 08:08:19;;;;;;;2.83;1.30;;;8.80;99.90;;;;;;5032362;28;20419;-59
2022/04/07 08:10:46;;;;;;;1.63;1.20;;;8.80;99.90;;;;;;5032338;28;20423;-58
2022/04/07 08:13:12;;;;;;;3.58;1.48;;;8.80;99.90;;;;;;5032428;28;20472;-59
2022/04/07 08:15:39;;;;;;;1.55;1.00;;;8.70;99.90;;;;;;5031394;28;20505;-59
2022/04/07 08:18:08;;;;;;;1.92;1.10;;;8.70;99.90;;;;;;5032498;28;20533;-59
2022/04/07 08:20:35;;;;;;;1.90;1.03;;;8.70;99.90;;;;;;5032107;28;20505;-58
2022/04/07 08:23:02;;;;;;;2.45;1.40;;;8.70;99.90;;;;;;5032109;28;20446;-59
2022/04/07 08:25:29;;;;;;;1.73;0.90;;;8.80;99.90;;;;;;5032107;28;20465;-59
2022/04/07 08:27:55;;;;;;;2.08;0.82;;;8.80;99.90;;;;;;5031292;28;20418;-59
2022/04/07 08:30:22;;;;;;;2.47;0.90;;;8.80;99.90;;;;;;5031799;28;20419;-59
2022/04/07 08:32:49;;;;;;;2.92;0.90;;;8.90;99.90;;;;;;5031542;28;20419;-59
2022/04/07 08:35:17;;;;;;;1.80;0.90;;;9.00;99.90;;;;;;5031825;28;20488;-59
2022/04/07 08:37:43;;;;;;;1.37;0.73;;;9.10;99.90;;;;;;5031861;28;20872;-59
2022/04/07 08:40:10;;;;;;;0.82;0.70;;;9.20;99.90;;;;;;5031500;28;20453;-59
2022/04/07 08:42:38;;;;;;;2.00;0.70;;;9.20;99.90;;;;;;5031748;28;20537;-59
2022/04/07 08:45:05;;;;;;;1.58;0.65;;;9.30;99.90;;;;;;5031407;28;20419;-59
2022/04/07 08:47:34;;;;;;;1.90;0.90;;;9.40;99.90;;;;;;5023765;28;20646;-59
2022/04/07 08:50:04;;;;;;;0.88;0.82;;;9.30;99.90;;;;;;5038082;28;20886;-58
2022/04/07 08:52:33;;;;;;;1.13;0.80;;;9.30;99.90;;;;;;5031215;28;20988;-60
2022/04/07 08:55:00;;;;;;;1.02;0.80;;;9.30;99.90;;;;;;5030857;28;20893;-63
2022/04/07 08:57:29;;;;;;;2.20;0.80;;;9.40;99.90;;;;;;5030507;28;20836;-61
2022/04/07 08:59:56;;;;;;;1.40;0.82;;;9.30;99.90;;;;;;5030799;28;20450;-60
2022/04/07 09:02:23;;;;;;;1.50;0.70;;;9.30;99.90;;;;;;5030273;28;20568;-61
2022/04/07 09:04:59;;;;;;;1.17;0.65;;;9.30;99.90;;;;;;5030159;28;21511;-56
2022/04/07 09:07:33;;;;;;;1.08;0.70;;;9.30;99.90;;;;;;5030236;28;20423;-56
2022/04/07 09:10:00;;;;;;;1.90;0.88;;;9.40;99.90;;;;;;5030998;28;20415;-56
2022/04/07 09:12:27;;;;;;;1.00;0.80;;;9.40;99.90;;;;;;5030748;28;20415;-61
2022/04/07 09:14:56;;;;;;;1.43;0.70;;;9.60;99.90;;;;;;5030716;28;20794;-60
2022/04/07 09:17:23;;;;;;;1.80;0.80;;;9.60;99.90;;;;;;5030135;28;20783;-61
2022/04/07 09:19:51;;;;;;;0.80;0.77;;;9.70;99.90;;;;;;5030352;28;20787;-61
2022/04/07 09:22:17;;;;;;;1.23;0.80;;;9.80;99.90;;;;;;5030675;28;20419;-61
2022/04/07 09:24:45;;;;;;;0.88;0.80;;;9.80;99.90;;;;;;5030744;28;20469;-60
2022/04/07 09:27:12;;;;;;;1.13;0.90;;;9.90;99.90;;;;;;5029852;28;20449;-60
2022/04/07 09:29:41;;;;;;;1.70;1.00;;;10.10;99.90;;;;;;5030770;28;20415;-60
2022/04/07 09:32:19;;;;;;;0.93;0.75;;;10.20;99.90;;;;;;5030315;28;20918;-55
2022/04/07 09:34:46;;;;;;;0.95;0.60;;;10.40;99.90;;;;;;5030607;28;20505;-55
2022/04/07 09:37:13;;;;;;;2.90;0.50;;;10.30;99.90;;;;;;5029779;28;20423;-54
2022/04/07 09:39:41;;;;;;;0.20;0.20;;;9.70;99.90;;;;;;5030470;28;20426;-55
2022/04/07 09:42:26;;;;;;;1.00;0.38;;;9.30;99.90;;;;;;5030912;28;20426;-59
2022/04/07 09:44:55;;;;;;;1.65;0.40;;;8.90;99.90;;;;;;5030448;28;20415;-63
2022/04/07 09:47:22;;;;;;;2.17;0.37;;;8.80;99.90;;;;;;5029565;28;20425;-60
2022/04/07 09:49:49;;;;;;;0.38;0.20;;;8.60;99.90;;;;;;5029696;28;20419;-54
2022/04/07 09:52:20;;;;;;;1.35;0.43;;;8.50;99.90;;;;;;5029857;28;20501;-59
2022/04/07 09:54:51;;;;;;;0.80;0.40;;;8.30;99.90;;;;;;5030099;28;20418;-59
2022/04/07 09:57:18;;;;;;;2.13;0.52;;;8.20;99.90;;;;;;5029794;28;20517;-63
2022/04/07 09:59:47;;;;;;;2.50;1.00;;;8.20;99.90;;;;;;5029594;28;20422;-61
2022/04/07 10:02:15;;;;;;;1.90;0.60;;;8.30;99.90;;;;;;5029844;28;20936;-60
2022/04/07 10:04:43;;;;;;;1.00;0.70;;;8.40;99.90;;;;;;5029536;28;20411;-60
2022/04/07 10:07:12;;;;;;;2.40;0.80;;;8.50;99.90;;;;;;5029249;28;20411;-60
2022/04/07 10:09:40;;;;;;;1.60;0.80;;;8.60;99.90;;;;;;5029753;28;20430;-61
2022/04/07 10:12:09;;;;;;;2.05;0.77;;;8.70;99.90;;;;;;5029788;28;20933;-58
2022/04/07 10:14:37;;;;;;;1.02;0.60;;;8.50;99.90;;;;;;5029992;28;20411;-58
2022/04/07 10:17:06;;;;;;;1.23;0.70;;;8.80;99.90;;;;;;5028495;28;20503;-57
2022/04/07 10:19:37;;;;;;;1.38;0.85;;;8.80;99.90;;;;;;5029851;28;20810;-55
2022/04/07 10:22:31;;;;;;;1.42;0.93;;;8.80;99.90;;;;;;5029715;28;20469;-57
2022/04/07 10:25:02;;;;;;;1.30;0.73;;;8.80;99.90;;;;;;5029397;28;20423;-58
2022/04/07 10:27:33;;;;;;;1.80;0.65;;;9.00;99.90;;;;;;5028791;28;20411;-56
2022/04/07 10:30:05;;;;;;;2.05;0.82;;;9.00;99.90;;;;;;5029458;28;20477;-58
2022/04/07 10:32:40;;;;;;;1.67;0.80;;;9.10;99.90;;;;;;5029694;28;20418;-58
2022/04/07 10:35:10;;;;;;;2.28;0.68;;;9.20;99.90;;;;;;5029523;28;20418;-58
2022/04/07 10:37:45;;;;;;;1.25;0.80;;;9.30;99.90;;;;;;5028937;28;20439;-58
2022/04/07 10:40:44;;;;;;;1.50;1.13;;;9.50;99.90;;;;;;5031941;28;20415;-58
2022/04/07 10:43:20;;;;;;;3.13;1.27;;;9.70;99.90;;;;;;5033524;28;20502;-59
2022/04/07 10:45:49;;;;;;;1.80;1.27;;;9.90;99.90;;;;;;5033082;28;20911;-59
2022/04/07 10:48:25;;;;;;;2.53;1.27;;;10.20;99.90;;;;;;5032433;28;20411;-59
2022/04/07 10:50:54;;;;;;;3.60;1.40;;;10.20;99.90;;;;;;5033624;28;20418;-59
2022/04/07 10:53:24;;;;;;;1.88;1.23;;;10.40;99.90;;;;;;5033207;28;21032;-59
2022/04/07 10:56:06;;;;;;;1.85;1.30;;;10.70;99.90;;;;;;5033296;28;20989;-57
2022/04/07 10:58:54;;;;;;;2.13;1.20;;;10.70;99.90;;;;;;5032471;28;20419;-56
2022/04/07 11:01:54;;;;;;;2.03;1.10;;;10.70;99.90;;;;;;5033854;28;20454;-58
2022/04/07 11:04:42;;;;;;;1.65;1.20;;;10.80;99.90;;;;;;5032972;28;20426;-58
2022/04/07 11:07:16;;;;;;;1.20;0.80;;;11.00;95.90;;;;;;5032472;28;20506;-59
2022/04/07 11:09:49;;;;;;;1.48;1.20;;;11.00;98.40;;;;;;5032325;28;20906;-58
2022/04/07 11:12:19;;;;;;;2.20;1.10;;;11.20;99.90;;;;;;5033046;28;20469;-58
2022/04/07 11:14:46;;;;;;;1.65;1.17;;;11.20;87.00;;;;;;5032919;28;20418;-56
2022/04/07 11:17:21;;;;;;;1.63;0.75;;;11.20;31.80;;;;;;5032186;28;20463;-59
2022/04/07 11:19:59;;;;;;;2.08;1.13;;;11.30;44.10;;;;;;5032252;28;20873;-59
2022/04/07 11:22:47;;;;;;;1.40;0.90;;;11.60;75.20;;;;;;5032805;28;20472;-56
2022/04/07 11:25:15;;;;;;;1.65;1.00;;;11.70;1.00;;;;;;5032731;28;20510;-59
2022/04/07 11:27:44;;;;;;;1.23;1.05;;;12.00;1.00;;;;;;5031783;28;20468;-59
2022/04/07 11:30:12;;;;;;;1.70;0.77;;;12.30;1.00;;;;;;5032858;28;20415;-58
2022/04/07 11:32:41;;;;;;;3.03;1.00;;;12.30;99.90;;;;;;5032626;28;20465;-59
2022/04/07 11:35:16;;;;;;;0.90;0.80;;;12.10;99.90;;;;;;5032625;28;20505;-59
2022/04/07 11:37:43;;;;;;;1.35;1.10;;;11.90;1.00;;;;;;5031980;28;20798;-56
2022/04/07 11:40:11;;;;;;;2.95;1.10;;;11.70;99.90;;;;;;5032198;28;20449;-59
2022/04/07 11:42:38;;;;;;;1.17;0.90;;;11.40;62.20;;;;;;5032328;28;20480;-58
2022/04/07 11:45:07;;;;;;;2.83;1.08;;;11.20;99.90;;;;;;5032287;28;20449;-59
2022/04/07 11:47:36;;;;;;;3.45;1.50;;;11.20;99.90;;;;;;5031789;28;20485;-57
2022/04/07 11:50:04;;;;;;;2.10;0.95;;;11.30;1.00;;;;;;5031747;28;20419;-61
2022/04/07 11:52:34;;;;;;;2.28;1.13;;;11.40;1.00;;;;;;5031566;28;20419;-60
2022/04/07 11:55:03;;;;;;;1.48;1.00;;;11.40;1.00;;;;;;5032031;28;20423;-62
2022/04/07 11:57:31;;;;;;;2.85;1.08;;;11.40;1.00;;;;;;5031280;28;20914;-63
2022/04/07 11:59:59;;;;;;;2.03;1.02;;;11.40;99.90;;;;;;5032059;28;20423;-63
2022/04/07 12:02:26;;;;;;;2.10;1.10;;;11.50;1.00;;;;;;5031980;28;20778;-61
2022/04/07 12:05:00;;;;;;;1.65;0.80;;;11.70;99.90;;;;;;5031892;28;20481;-61
2022/04/07 12:07:28;;;;;;;2.58;1.00;;;11.70;99.90;;;;;;5031441;28;20415;-61
2022/04/07 12:09:57;;;;;;;2.45;0.90;;;11.70;99.90;;;;;;5031112;28;20419;-61
2022/04/07 12:12:25;;;;;;;2.58;0.80;;;12.10;10.00;;;;;;5031363;28;20434;-60
2022/04/07 12:14:53;;;;;;;1.90;0.90;;;12.40;1.00;;;;;;5030751;28;20437;-61
2022/04/07 12:17:22;;;;;;;1.77;0.80;;;12.70;99.90;;;;;;5030794;28;20431;-61
2022/04/07 12:19:49;;;;;;;2.63;1.02;;;12.90;99.90;;;;;;5031318;28;20426;-63
2022/04/07 12:22:17;;;;;;;1.80;1.00;;;12.80;99.90;;;;;;5031185;28;20431;-59
2022/04/07 12:25:00;;;;;;;3.08;1.00;;;13.00;99.90;;;;;;5031820;28;20521;-62
2022/04/07 12:27:29;;;;;;;2.53;0.80;;;13.10;99.90;;;;;;5030380;28;20415;-63
2022/04/07 12:29:55;;;;;;;2.42;0.70;;;13.40;99.90;;;;;;5031227;28;21211;-62
2022/04/07 12:32:22;;;;;;;2.35;0.85;;;13.40;99.90;;;;;;5031153;28;20489;-62
2022/04/07 12:34:56;;;;;;;2.95;0.85;;;13.40;99.90;;;;;;5031491;28;20430;-63
2022/04/07 12:37:30;;;;;;;2.33;0.93;;;13.40;99.90;;;;;;5031084;28;20507;-63
2022/04/07 12:39:57;;;;;;;2.35;0.68;;;13.20;99.90;;;;;;5031381;28;20460;-59
2022/04/07 12:42:25;;;;;;;2.72;0.95;;;13.00;99.90;;;;;;5031743;28;20422;-58
2022/04/07 12:45:04;;;;;;;3.42;1.70;;;12.20;99.90;;;;;;5030995;28;20415;-58
2022/04/07 12:47:31;;;;;;;6.20;2.20;;;11.50;1.00;;;;;;5030991;28;20410;-58
2022/04/07 12:50:00;;;;;;;4.20;1.90;;;10.10;99.90;;;;;;5031191;28;20419;-58
2022/04/07 12:52:38;;;;;;;3.65;1.92;;;9.50;99.90;;;;;;5031293;28;20770;-58
2022/04/07 12:55:07;;;;;;;5.25;2.10;;;9.30;1.00;;;;;;5031065;28;20423;-58
2022/04/07 12:57:38;;;;;;;5.00;1.90;;;9.20;1.00;;;;;;5030044;28;20431;-58
2022/04/07 13:00:07;;;;;;;6.47;2.25;;;9.20;99.90;;;;;;5031158;28;20419;-57
2022/04/07 13:02:48;;;;;;;5.22;2.13;;;9.20;1.00;;;;;;5030374;28;20473;-58
2022/04/07 13:05:21;;;;;;;6.30;2.00;;;9.10;1.00;;;;;;5030867;28;20461;-58